sensor_id;sensor_type;location;lat;lon;timestamp;P1;durP1;ratioP1;P2;durP2;ratioP2
62582;SDS011;48641;51.676;5.808;2023-08-20T00:01:32;5.13;;;2.47;;
62582;SDS011;48641;51.676;5.808;2023-08-20T00:03:57;5.22;;;2.50;;
62582;SDS011;48641;51.676;5.808;2023-08-20T00:06:23;4.93;;;2.20;;
62582;SDS011;48641;51.676;5.808;2023-08-20T00:08:49;4.53;;;2.03;;
62582;SDS011;48641;51.676;5.808;2023-08-20T00:11:15;5.50;;;2.33;;
62582;SDS011;48641;51.676;5.808;2023-08-20T00:13:41;3.85;;;1.98;;
62582;SDS011;48641;51.676;5.808;2023-08-20T00:16:08;4.28;;;2.20;;
62582;SDS011;48641;51.676;5.808;2023-08-20T00:18:34;4.43;;;2.10;;
62582;SDS011;48641;51.676;5.808;2023-08-20T00:21:00;5.10;;;2.22;;
62582;SDS011;48641;51.676;5.808;2023-08-20T00:23:26;5.63;;;2.38;;
62582;SDS011;48641;51.676;5.808;2023-08-20T00:25:52;4.60;;;2.10;;
62582;SDS011;48641;51.676;5.808;2023-08-20T00:28:21;3.88;;;2.28;;
62582;SDS011;48641;51.676;5.808;2023-08-20T00:30:46;5.10;;;2.25;;
62582;SDS011;48641;51.676;5.808;2023-08-20T00:33:14;5.32;;;2.53;;
62582;SDS011;48641;51.676;5.808;2023-08-20T00:35:39;5.10;;;2.20;;
62582;SDS011;48641;51.676;5.808;2023-08-20T00:38:05;4.35;;;2.13;;
62582;SDS011;48641;51.676;5.808;2023-08-20T00:40:31;4.45;;;2.20;;
62582;SDS011;48641;51.676;5.808;2023-08-20T00:42:57;5.15;;;2.67;;
62582;SDS011;48641;51.676;5.808;2023-08-20T00:45:23;4.00;;;2.20;;
62582;SDS011;48641;51.676;5.808;2023-08-20T00:47:49;4.53;;;2.30;;
62582;SDS011;48641;51.676;5.808;2023-08-20T00:50:16;5.78;;;2.45;;
62582;SDS011;48641;51.676;5.808;2023-08-20T00:52:42;4.72;;;2.50;;
62582;SDS011;48641;51.676;5.808;2023-08-20T00:55:09;4.40;;;2.15;;
62582;SDS011;48641;51.676;5.808;2023-08-20T00:57:38;5.32;;;2.20;;
62582;SDS011;48641;51.676;5.808;2023-08-20T01:00:05;4.32;;;2.28;;
62582;SDS011;48641;51.676;5.808;2023-08-20T01:02:33;4.50;;;2.20;;
62582;SDS011;48641;51.676;5.808;2023-08-20T01:04:59;4.90;;;2.47;;
62582;SDS011;48641;51.676;5.808;2023-08-20T01:10:36;3.63;;;2.00;;
62582;SDS011;48641;51.676;5.808;2023-08-20T01:13:17;4.15;;;2.08;;
62582;SDS011;48641;51.676;5.808;2023-08-20T01:15:43;4.47;;;2.00;;
62582;SDS011;48641;51.676;5.808;2023-08-20T01:18:09;3.13;;;1.88;;
62582;SDS011;48641;51.676;5.808;2023-08-20T01:20:55;4.30;;;2.10;;
62582;SDS011;48641;51.676;5.808;2023-08-20T01:23:32;4.05;;;2.10;;
62582;SDS011;48641;51.676;5.808;2023-08-20T01:28:50;3.95;;;2.08;;
62582;SDS011;48641;51.676;5.808;2023-08-20T01:31:16;4.88;;;2.20;;
62582;SDS011;48641;51.676;5.808;2023-08-20T01:33:43;5.53;;;2.38;;
62582;SDS011;48641;51.676;5.808;2023-08-20T01:36:09;3.75;;;2.08;;
62582;SDS011;48641;51.676;5.808;2023-08-20T01:38:35;4.22;;;2.20;;
62582;SDS011;48641;51.676;5.808;2023-08-20T01:41:01;4.63;;;2.20;;
62582;SDS011;48641;51.676;5.808;2023-08-20T01:43:27;5.03;;;2.20;;
62582;SDS011;48641;51.676;5.808;2023-08-20T01:45:53;3.78;;;1.98;;
62582;SDS011;48641;51.676;5.808;2023-08-20T01:48:18;4.95;;;2.30;;
62582;SDS011;48641;51.676;5.808;2023-08-20T01:50:44;4.53;;;2.05;;
62582;SDS011;48641;51.676;5.808;2023-08-20T01:53:11;4.55;;;2.40;;
62582;SDS011;48641;51.676;5.808;2023-08-20T01:55:36;4.30;;;2.03;;
62582;SDS011;48641;51.676;5.808;2023-08-20T01:58:02;4.75;;;2.10;;
62582;SDS011;48641;51.676;5.808;2023-08-20T02:00:28;4.38;;;2.30;;
62582;SDS011;48641;51.676;5.808;2023-08-20T02:02:55;4.93;;;2.30;;
62582;SDS011;48641;51.676;5.808;2023-08-20T02:05:21;3.78;;;2.10;;
62582;SDS011;48641;51.676;5.808;2023-08-20T02:07:47;4.57;;;2.40;;
62582;SDS011;48641;51.676;5.808;2023-08-20T02:10:13;4.28;;;2.00;;
62582;SDS011;48641;51.676;5.808;2023-08-20T02:12:39;4.68;;;2.30;;
62582;SDS011;48641;51.676;5.808;2023-08-20T02:15:06;4.88;;;2.30;;
62582;SDS011;48641;51.676;5.808;2023-08-20T02:17:32;5.53;;;2.20;;
62582;SDS011;48641;51.676;5.808;2023-08-20T02:20:00;5.63;;;2.50;;
62582;SDS011;48641;51.676;5.808;2023-08-20T02:22:28;4.15;;;2.15;;
62582;SDS011;48641;51.676;5.808;2023-08-20T02:24:54;5.13;;;2.28;;
62582;SDS011;48641;51.676;5.808;2023-08-20T02:27:20;4.18;;;2.15;;
62582;SDS011;48641;51.676;5.808;2023-08-20T02:29:45;4.47;;;2.20;;
62582;SDS011;48641;51.676;5.808;2023-08-20T02:32:11;5.55;;;2.30;;
62582;SDS011;48641;51.676;5.808;2023-08-20T02:34:37;4.30;;;1.98;;
62582;SDS011;48641;51.676;5.808;2023-08-20T02:37:02;5.40;;;2.50;;
62582;SDS011;48641;51.676;5.808;2023-08-20T02:39:28;5.25;;;2.30;;
62582;SDS011;48641;51.676;5.808;2023-08-20T02:41:54;4.43;;;2.10;;
62582;SDS011;48641;51.676;5.808;2023-08-20T02:44:19;5.22;;;2.10;;
62582;SDS011;48641;51.676;5.808;2023-08-20T02:46:45;3.05;;;1.77;;
62582;SDS011;48641;51.676;5.808;2023-08-20T02:49:10;4.32;;;1.90;;
62582;SDS011;48641;51.676;5.808;2023-08-20T02:51:36;5.05;;;2.30;;
62582;SDS011;48641;51.676;5.808;2023-08-20T02:54:02;4.78;;;2.10;;
62582;SDS011;48641;51.676;5.808;2023-08-20T02:56:28;3.45;;;1.95;;
62582;SDS011;48641;51.676;5.808;2023-08-20T02:58:54;4.70;;;2.15;;
62582;SDS011;48641;51.676;5.808;2023-08-20T03:01:23;4.15;;;2.03;;
62582;SDS011;48641;51.676;5.808;2023-08-20T03:03:50;3.97;;;1.90;;
62582;SDS011;48641;51.676;5.808;2023-08-20T03:06:16;4.70;;;1.98;;
62582;SDS011;48641;51.676;5.808;2023-08-20T03:08:42;4.90;;;2.20;;
62582;SDS011;48641;51.676;5.808;2023-08-20T03:11:07;4.53;;;2.00;;
62582;SDS011;48641;51.676;5.808;2023-08-20T03:13:33;3.63;;;2.00;;
62582;SDS011;48641;51.676;5.808;2023-08-20T03:15:59;3.90;;;2.00;;
62582;SDS011;48641;51.676;5.808;2023-08-20T03:18:24;3.83;;;1.92;;
62582;SDS011;48641;51.676;5.808;2023-08-20T03:20:51;4.78;;;1.98;;
62582;SDS011;48641;51.676;5.808;2023-08-20T03:23:17;3.40;;;1.83;;
62582;SDS011;48641;51.676;5.808;2023-08-20T03:25:42;4.40;;;2.00;;
62582;SDS011;48641;51.676;5.808;2023-08-20T03:28:08;3.97;;;2.05;;
62582;SDS011;48641;51.676;5.808;2023-08-20T03:30:33;3.28;;;1.73;;
62582;SDS011;48641;51.676;5.808;2023-08-20T03:32:59;5.60;;;2.13;;
62582;SDS011;48641;51.676;5.808;2023-08-20T03:35:25;4.43;;;2.00;;
62582;SDS011;48641;51.676;5.808;2023-08-20T03:37:50;3.85;;;1.90;;
62582;SDS011;48641;51.676;5.808;2023-08-20T03:40:16;4.70;;;2.00;;
62582;SDS011;48641;51.676;5.808;2023-08-20T03:42:43;3.58;;;1.77;;
62582;SDS011;48641;51.676;5.808;2023-08-20T03:45:09;4.93;;;2.35;;
62582;SDS011;48641;51.676;5.808;2023-08-20T03:47:34;3.95;;;2.22;;
62582;SDS011;48641;51.676;5.808;2023-08-20T03:50:01;4.28;;;1.90;;
62582;SDS011;48641;51.676;5.808;2023-08-20T03:52:27;3.97;;;2.00;;
62582;SDS011;48641;51.676;5.808;2023-08-20T03:54:53;3.53;;;1.88;;
62582;SDS011;48641;51.676;5.808;2023-08-20T03:57:18;4.07;;;1.63;;
62582;SDS011;48641;51.676;5.808;2023-08-20T03:59:44;4.70;;;2.05;;
62582;SDS011;48641;51.676;5.808;2023-08-20T04:02:10;3.90;;;1.90;;
62582;SDS011;48641;51.676;5.808;2023-08-20T04:04:36;2.97;;;1.80;;
62582;SDS011;48641;51.676;5.808;2023-08-20T04:07:02;4.10;;;1.95;;
62582;SDS011;48641;51.676;5.808;2023-08-20T04:09:28;4.35;;;2.25;;
62582;SDS011;48641;51.676;5.808;2023-08-20T04:11:53;3.38;;;1.90;;
62582;SDS011;48641;51.676;5.808;2023-08-20T04:14:19;4.78;;;2.00;;
62582;SDS011;48641;51.676;5.808;2023-08-20T04:16:44;3.28;;;1.80;;
62582;SDS011;48641;51.676;5.808;2023-08-20T04:19:10;3.78;;;1.73;;
62582;SDS011;48641;51.676;5.808;2023-08-20T04:21:36;3.33;;;1.85;;
62582;SDS011;48641;51.676;5.808;2023-08-20T04:24:02;3.50;;;1.98;;
62582;SDS011;48641;51.676;5.808;2023-08-20T04:26:28;4.20;;;2.10;;
62582;SDS011;48641;51.676;5.808;2023-08-20T04:28:53;4.05;;;2.10;;
62582;SDS011;48641;51.676;5.808;2023-08-20T04:31:19;4.07;;;1.88;;
62582;SDS011;48641;51.676;5.808;2023-08-20T04:33:45;3.63;;;1.83;;
62582;SDS011;48641;51.676;5.808;2023-08-20T04:36:11;3.65;;;1.95;;
62582;SDS011;48641;51.676;5.808;2023-08-20T04:38:36;3.85;;;1.83;;
62582;SDS011;48641;51.676;5.808;2023-08-20T04:41:02;4.45;;;2.00;;
62582;SDS011;48641;51.676;5.808;2023-08-20T04:43:28;3.35;;;1.67;;
62582;SDS011;48641;51.676;5.808;2023-08-20T04:45:53;3.92;;;1.80;;
62582;SDS011;48641;51.676;5.808;2023-08-20T04:48:19;3.13;;;1.70;;
62582;SDS011;48641;51.676;5.808;2023-08-20T04:50:44;3.38;;;1.80;;
62582;SDS011;48641;51.676;5.808;2023-08-20T04:53:10;3.78;;;1.73;;
62582;SDS011;48641;51.676;5.808;2023-08-20T04:55:36;3.42;;;1.70;;
62582;SDS011;48641;51.676;5.808;2023-08-20T04:58:01;3.58;;;1.70;;
62582;SDS011;48641;51.676;5.808;2023-08-20T05:00:27;3.30;;;1.80;;
62582;SDS011;48641;51.676;5.808;2023-08-20T05:02:53;2.80;;;1.55;;
62582;SDS011;48641;51.676;5.808;2023-08-20T05:05:21;4.13;;;1.90;;
62582;SDS011;48641;51.676;5.808;2023-08-20T05:07:46;4.00;;;1.95;;
62582;SDS011;48641;51.676;5.808;2023-08-20T05:10:12;4.25;;;1.98;;
62582;SDS011;48641;51.676;5.808;2023-08-20T05:12:38;4.57;;;1.90;;
62582;SDS011;48641;51.676;5.808;2023-08-20T05:15:03;3.95;;;1.90;;
62582;SDS011;48641;51.676;5.808;2023-08-20T05:17:29;3.50;;;1.80;;
62582;SDS011;48641;51.676;5.808;2023-08-20T05:19:55;2.97;;;1.67;;
62582;SDS011;48641;51.676;5.808;2023-08-20T05:22:21;3.90;;;1.70;;
62582;SDS011;48641;51.676;5.808;2023-08-20T05:24:46;4.10;;;1.88;;
62582;SDS011;48641;51.676;5.808;2023-08-20T05:27:13;4.13;;;2.05;;
62582;SDS011;48641;51.676;5.808;2023-08-20T05:29:42;3.65;;;1.85;;
62582;SDS011;48641;51.676;5.808;2023-08-20T05:32:08;3.47;;;1.52;;
62582;SDS011;48641;51.676;5.808;2023-08-20T05:34:34;3.50;;;1.80;;
62582;SDS011;48641;51.676;5.808;2023-08-20T05:37:00;3.28;;;1.77;;
62582;SDS011;48641;51.676;5.808;2023-08-20T05:39:25;4.78;;;2.00;;
62582;SDS011;48641;51.676;5.808;2023-08-20T05:41:52;3.17;;;1.63;;
62582;SDS011;48641;51.676;5.808;2023-08-20T05:44:18;4.10;;;1.90;;
62582;SDS011;48641;51.676;5.808;2023-08-20T05:46:43;3.97;;;1.67;;
62582;SDS011;48641;51.676;5.808;2023-08-20T05:49:09;3.78;;;2.05;;
62582;SDS011;48641;51.676;5.808;2023-08-20T05:51:35;4.32;;;1.70;;
62582;SDS011;48641;51.676;5.808;2023-08-20T05:54:00;3.90;;;2.10;;
62582;SDS011;48641;51.676;5.808;2023-08-20T05:56:26;4.60;;;1.90;;
62582;SDS011;48641;51.676;5.808;2023-08-20T05:58:51;4.47;;;1.90;;
62582;SDS011;48641;51.676;5.808;2023-08-20T06:01:17;4.72;;;1.92;;
62582;SDS011;48641;51.676;5.808;2023-08-20T06:03:43;3.17;;;1.60;;
62582;SDS011;48641;51.676;5.808;2023-08-20T06:06:08;3.50;;;1.80;;
62582;SDS011;48641;51.676;5.808;2023-08-20T06:08:34;3.72;;;2.05;;
62582;SDS011;48641;51.676;5.808;2023-08-20T06:10:59;3.42;;;1.77;;
62582;SDS011;48641;51.676;5.808;2023-08-20T06:13:25;4.68;;;1.83;;
62582;SDS011;48641;51.676;5.808;2023-08-20T06:15:50;3.60;;;1.80;;
62582;SDS011;48641;51.676;5.808;2023-08-20T06:18:16;2.97;;;1.70;;
62582;SDS011;48641;51.676;5.808;2023-08-20T06:20:42;3.40;;;1.80;;
62582;SDS011;48641;51.676;5.808;2023-08-20T06:23:07;3.72;;;1.95;;
62582;SDS011;48641;51.676;5.808;2023-08-20T06:25:33;3.78;;;1.90;;
62582;SDS011;48641;51.676;5.808;2023-08-20T06:27:58;3.72;;;1.80;;
62582;SDS011;48641;51.676;5.808;2023-08-20T06:30:24;3.58;;;1.90;;
62582;SDS011;48641;51.676;5.808;2023-08-20T06:32:50;4.22;;;1.75;;
62582;SDS011;48641;51.676;5.808;2023-08-20T06:35:15;4.18;;;1.95;;
62582;SDS011;48641;51.676;5.808;2023-08-20T06:37:41;3.60;;;1.80;;
62582;SDS011;48641;51.676;5.808;2023-08-20T06:40:07;3.00;;;1.60;;
62582;SDS011;48641;51.676;5.808;2023-08-20T06:42:33;3.30;;;1.75;;
62582;SDS011;48641;51.676;5.808;2023-08-20T06:44:59;3.15;;;1.50;;
62582;SDS011;48641;51.676;5.808;2023-08-20T06:47:24;3.13;;;1.65;;
62582;SDS011;48641;51.676;5.808;2023-08-20T06:49:50;3.90;;;1.70;;
62582;SDS011;48641;51.676;5.808;2023-08-20T06:52:16;2.95;;;1.73;;
62582;SDS011;48641;51.676;5.808;2023-08-20T06:54:42;3.85;;;1.83;;
62582;SDS011;48641;51.676;5.808;2023-08-20T06:57:07;3.67;;;1.60;;
62582;SDS011;48641;51.676;5.808;2023-08-20T06:59:33;3.47;;;1.65;;
62582;SDS011;48641;51.676;5.808;2023-08-20T07:01:58;3.03;;;1.70;;
62582;SDS011;48641;51.676;5.808;2023-08-20T07:04:24;2.80;;;1.70;;
62582;SDS011;48641;51.676;5.808;2023-08-20T07:06:50;3.08;;;1.80;;
62582;SDS011;48641;51.676;5.808;2023-08-20T07:09:16;3.25;;;1.50;;
62582;SDS011;48641;51.676;5.808;2023-08-20T07:11:41;3.33;;;1.70;;
62582;SDS011;48641;51.676;5.808;2023-08-20T07:14:07;3.42;;;1.55;;
62582;SDS011;48641;51.676;5.808;2023-08-20T07:16:32;3.67;;;1.75;;
62582;SDS011;48641;51.676;5.808;2023-08-20T07:18:58;3.85;;;1.75;;
62582;SDS011;48641;51.676;5.808;2023-08-20T07:21:24;2.80;;;1.55;;
62582;SDS011;48641;51.676;5.808;2023-08-20T07:23:49;4.53;;;1.80;;
62582;SDS011;48641;51.676;5.808;2023-08-20T07:26:15;3.50;;;1.52;;
62582;SDS011;48641;51.676;5.808;2023-08-20T07:28:41;3.40;;;1.73;;
62582;SDS011;48641;51.676;5.808;2023-08-20T07:31:28;4.80;;;1.98;;
62582;SDS011;48641;51.676;5.808;2023-08-20T07:33:56;2.85;;;1.65;;
62582;SDS011;48641;51.676;5.808;2023-08-20T07:36:23;3.20;;;1.67;;
62582;SDS011;48641;51.676;5.808;2023-08-20T07:38:50;3.03;;;1.67;;
62582;SDS011;48641;51.676;5.808;2023-08-20T07:41:17;2.25;;;1.40;;
62582;SDS011;48641;51.676;5.808;2023-08-20T07:43:43;3.30;;;1.55;;
62582;SDS011;48641;51.676;5.808;2023-08-20T07:46:08;3.05;;;1.50;;
62582;SDS011;48641;51.676;5.808;2023-08-20T07:48:35;2.80;;;1.45;;
62582;SDS011;48641;51.676;5.808;2023-08-20T07:51:01;3.05;;;1.58;;
62582;SDS011;48641;51.676;5.808;2023-08-20T07:53:27;2.90;;;1.60;;
62582;SDS011;48641;51.676;5.808;2023-08-20T07:55:53;3.15;;;1.48;;
62582;SDS011;48641;51.676;5.808;2023-08-20T07:58:19;2.50;;;1.40;;
62582;SDS011;48641;51.676;5.808;2023-08-20T08:00:44;4.68;;;1.80;;
62582;SDS011;48641;51.676;5.808;2023-08-20T08:03:10;2.55;;;1.52;;
62582;SDS011;48641;51.676;5.808;2023-08-20T08:05:36;3.40;;;1.40;;
62582;SDS011;48641;51.676;5.808;2023-08-20T08:08:02;3.03;;;1.55;;
62582;SDS011;48641;51.676;5.808;2023-08-20T08:10:28;3.95;;;1.73;;
62582;SDS011;48641;51.676;5.808;2023-08-20T08:12:54;2.65;;;1.42;;
62582;SDS011;48641;51.676;5.808;2023-08-20T08:15:19;3.08;;;1.80;;
62582;SDS011;48641;51.676;5.808;2023-08-20T08:17:45;3.08;;;1.50;;
62582;SDS011;48641;51.676;5.808;2023-08-20T08:20:11;3.53;;;1.42;;
62582;SDS011;48641;51.676;5.808;2023-08-20T08:22:36;3.50;;;1.50;;
62582;SDS011;48641;51.676;5.808;2023-08-20T08:25:02;3.38;;;1.60;;
62582;SDS011;48641;51.676;5.808;2023-08-20T08:27:28;2.95;;;1.42;;
62582;SDS011;48641;51.676;5.808;2023-08-20T08:29:53;2.22;;;1.30;;
62582;SDS011;48641;51.676;5.808;2023-08-20T08:32:19;2.22;;;1.30;;
62582;SDS011;48641;51.676;5.808;2023-08-20T08:34:45;2.90;;;1.50;;
62582;SDS011;48641;51.676;5.808;2023-08-20T08:37:10;2.78;;;1.50;;
62582;SDS011;48641;51.676;5.808;2023-08-20T08:39:36;2.83;;;1.40;;
62582;SDS011;48641;51.676;5.808;2023-08-20T08:42:02;2.45;;;1.33;;
62582;SDS011;48641;51.676;5.808;2023-08-20T08:44:33;3.67;;;1.67;;
62582;SDS011;48641;51.676;5.808;2023-08-20T08:46:59;2.72;;;1.38;;
62582;SDS011;48641;51.676;5.808;2023-08-20T08:49:30;2.15;;;1.30;;
62582;SDS011;48641;51.676;5.808;2023-08-20T08:51:59;2.95;;;1.50;;
62582;SDS011;48641;51.676;5.808;2023-08-20T08:54:26;2.88;;;1.30;;
62582;SDS011;48641;51.676;5.808;2023-08-20T08:56:52;2.40;;;1.35;;
62582;SDS011;48641;51.676;5.808;2023-08-20T08:59:18;3.03;;;1.30;;
62582;SDS011;48641;51.676;5.808;2023-08-20T09:01:44;2.45;;;1.38;;
62582;SDS011;48641;51.676;5.808;2023-08-20T09:04:10;3.80;;;1.50;;
62582;SDS011;48641;51.676;5.808;2023-08-20T09:06:45;3.00;;;1.30;;
62582;SDS011;48641;51.676;5.808;2023-08-20T09:09:19;2.88;;;1.58;;
62582;SDS011;48641;51.676;5.808;2023-08-20T09:11:48;3.50;;;1.48;;
62582;SDS011;48641;51.676;5.808;2023-08-20T09:14:24;3.63;;;1.60;;
62582;SDS011;48641;51.676;5.808;2023-08-20T09:17:02;3.78;;;1.70;;
62582;SDS011;48641;51.676;5.808;2023-08-20T09:19:28;3.15;;;1.63;;
62582;SDS011;48641;51.676;5.808;2023-08-20T09:22:00;3.03;;;1.30;;
62582;SDS011;48641;51.676;5.808;2023-08-20T09:24:26;4.88;;;1.77;;
62582;SDS011;48641;51.676;5.808;2023-08-20T09:27:10;3.90;;;1.60;;
62582;SDS011;48641;51.676;5.808;2023-08-20T09:29:47;3.35;;;1.58;;
62582;SDS011;48641;51.676;5.808;2023-08-20T09:32:14;3.40;;;1.60;;
62582;SDS011;48641;51.676;5.808;2023-08-20T09:34:41;3.17;;;1.45;;
62582;SDS011;48641;51.676;5.808;2023-08-20T09:37:10;3.00;;;1.30;;
62582;SDS011;48641;51.676;5.808;2023-08-20T09:39:37;3.20;;;1.50;;
62582;SDS011;48641;51.676;5.808;2023-08-20T09:42:03;2.20;;;1.40;;
62582;SDS011;48641;51.676;5.808;2023-08-20T09:44:34;3.67;;;1.45;;
62582;SDS011;48641;51.676;5.808;2023-08-20T09:47:10;2.80;;;1.40;;
62582;SDS011;48641;51.676;5.808;2023-08-20T09:49:41;4.80;;;1.98;;
62582;SDS011;48641;51.676;5.808;2023-08-20T09:52:09;3.23;;;1.30;;
62582;SDS011;48641;51.676;5.808;2023-08-20T09:57:20;3.25;;;1.50;;
62582;SDS011;48641;51.676;5.808;2023-08-20T10:00:09;3.67;;;1.40;;
62582;SDS011;48641;51.676;5.808;2023-08-20T10:02:37;3.85;;;1.50;;
62582;SDS011;48641;51.676;5.808;2023-08-20T10:05:07;2.97;;;1.35;;
62582;SDS011;48641;51.676;5.808;2023-08-20T10:07:34;4.30;;;1.60;;
62582;SDS011;48641;51.676;5.808;2023-08-20T10:10:09;3.63;;;1.58;;
62582;SDS011;48641;51.676;5.808;2023-08-20T10:12:38;2.60;;;1.42;;
62582;SDS011;48641;51.676;5.808;2023-08-20T10:15:07;4.20;;;1.40;;
62582;SDS011;48641;51.676;5.808;2023-08-20T10:20:01;3.13;;;1.38;;
62582;SDS011;48641;51.676;5.808;2023-08-20T10:22:32;3.38;;;1.25;;
62582;SDS011;48641;51.676;5.808;2023-08-20T10:25:05;2.65;;;1.33;;
62582;SDS011;48641;51.676;5.808;2023-08-20T10:27:47;3.17;;;1.35;;
62582;SDS011;48641;51.676;5.808;2023-08-20T10:30:17;3.13;;;1.40;;
62582;SDS011;48641;51.676;5.808;2023-08-20T10:32:52;3.40;;;1.50;;
62582;SDS011;48641;51.676;5.808;2023-08-20T10:48:33;3.63;;;1.40;;
62582;SDS011;48641;51.676;5.808;2023-08-20T10:51:11;2.50;;;1.30;;
62582;SDS011;48641;51.676;5.808;2023-08-20T10:53:42;2.80;;;1.30;;
62582;SDS011;48641;51.676;5.808;2023-08-20T10:56:45;4.50;;;1.30;;
62582;SDS011;48641;51.676;5.808;2023-08-20T10:59:17;2.97;;;1.30;;
62582;SDS011;48641;51.676;5.808;2023-08-20T11:01:53;2.80;;;1.25;;
62582;SDS011;48641;51.676;5.808;2023-08-20T11:04:21;3.83;;;1.38;;
62582;SDS011;48641;51.676;5.808;2023-08-20T11:06:55;2.95;;;1.40;;
62582;SDS011;48641;51.676;5.808;2023-08-20T11:09:26;2.28;;;1.20;;
62582;SDS011;48641;51.676;5.808;2023-08-20T11:11:53;2.35;;;1.30;;
62582;SDS011;48641;51.676;5.808;2023-08-20T11:14:20;2.47;;;1.10;;
62582;SDS011;48641;51.676;5.808;2023-08-20T11:16:46;2.20;;;1.13;;
62582;SDS011;48641;51.676;5.808;2023-08-20T11:19:13;3.03;;;1.30;;
62582;SDS011;48641;51.676;5.808;2023-08-20T11:21:41;2.53;;;1.20;;
62582;SDS011;48641;51.676;5.808;2023-08-20T11:24:07;3.55;;;1.20;;
62582;SDS011;48641;51.676;5.808;2023-08-20T11:26:34;1.60;;;1.00;;
62582;SDS011;48641;51.676;5.808;2023-08-20T11:29:00;3.97;;;1.50;;
62582;SDS011;48641;51.676;5.808;2023-08-20T11:31:30;2.63;;;1.20;;
62582;SDS011;48641;51.676;5.808;2023-08-20T11:33:56;2.60;;;1.50;;
62582;SDS011;48641;51.676;5.808;2023-08-20T11:36:22;2.13;;;1.27;;
62582;SDS011;48641;51.676;5.808;2023-08-20T11:38:52;3.13;;;1.30;;
62582;SDS011;48641;51.676;5.808;2023-08-20T11:44:45;2.25;;;1.20;;
62582;SDS011;48641;51.676;5.808;2023-08-20T11:47:18;3.13;;;1.10;;
62582;SDS011;48641;51.676;5.808;2023-08-20T11:52:52;2.83;;;1.38;;
62582;SDS011;48641;51.676;5.808;2023-08-20T12:02:27;2.38;;;1.10;;
62582;SDS011;48641;51.676;5.808;2023-08-20T12:04:55;1.80;;;1.17;;
62582;SDS011;48641;51.676;5.808;2023-08-20T12:07:24;3.25;;;1.20;;
62582;SDS011;48641;51.676;5.808;2023-08-20T12:09:51;2.35;;;1.10;;
62582;SDS011;48641;51.676;5.808;2023-08-20T12:12:18;2.38;;;1.10;;
62582;SDS011;48641;51.676;5.808;2023-08-20T12:14:47;2.00;;;1.20;;
62582;SDS011;48641;51.676;5.808;2023-08-20T12:17:17;2.65;;;1.10;;
62582;SDS011;48641;51.676;5.808;2023-08-20T12:19:43;2.60;;;1.15;;
62582;SDS011;48641;51.676;5.808;2023-08-20T12:22:09;1.90;;;1.10;;
62582;SDS011;48641;51.676;5.808;2023-08-20T12:24:35;2.40;;;1.20;;
62582;SDS011;48641;51.676;5.808;2023-08-20T12:27:01;2.28;;;0.95;;
62582;SDS011;48641;51.676;5.808;2023-08-20T12:29:27;2.53;;;1.20;;
62582;SDS011;48641;51.676;5.808;2023-08-20T12:31:53;2.42;;;1.17;;
62582;SDS011;48641;51.676;5.808;2023-08-20T12:34:19;1.48;;;1.00;;
62582;SDS011;48641;51.676;5.808;2023-08-20T12:36:46;2.67;;;1.17;;
62582;SDS011;48641;51.676;5.808;2023-08-20T12:39:12;2.70;;;1.10;;
62582;SDS011;48641;51.676;5.808;2023-08-20T12:41:39;1.90;;;1.10;;
62582;SDS011;48641;51.676;5.808;2023-08-20T12:44:05;2.20;;;1.10;;
62582;SDS011;48641;51.676;5.808;2023-08-20T12:46:30;2.42;;;1.10;;
62582;SDS011;48641;51.676;5.808;2023-08-20T12:48:58;2.15;;;1.20;;
62582;SDS011;48641;51.676;5.808;2023-08-20T12:51:24;2.67;;;1.17;;
62582;SDS011;48641;51.676;5.808;2023-08-20T12:53:50;1.55;;;0.90;;
62582;SDS011;48641;51.676;5.808;2023-08-20T12:56:17;1.80;;;1.00;;
62582;SDS011;48641;51.676;5.808;2023-08-20T12:58:43;1.92;;;1.08;;
62582;SDS011;48641;51.676;5.808;2023-08-20T13:01:09;1.83;;;1.13;;
62582;SDS011;48641;51.676;5.808;2023-08-20T13:03:35;1.92;;;1.17;;
62582;SDS011;48641;51.676;5.808;2023-08-20T13:06:01;2.33;;;1.08;;
62582;SDS011;48641;51.676;5.808;2023-08-20T13:08:26;2.42;;;1.00;;
62582;SDS011;48641;51.676;5.808;2023-08-20T13:10:53;2.45;;;1.30;;
62582;SDS011;48641;51.676;5.808;2023-08-20T13:13:21;2.20;;;1.13;;
62582;SDS011;48641;51.676;5.808;2023-08-20T13:15:48;1.80;;;1.10;;
62582;SDS011;48641;51.676;5.808;2023-08-20T13:18:15;1.92;;;1.10;;
62582;SDS011;48641;51.676;5.808;2023-08-20T13:20:41;2.92;;;1.10;;
62582;SDS011;48641;51.676;5.808;2023-08-20T13:23:08;2.17;;;1.10;;
62582;SDS011;48641;51.676;5.808;2023-08-20T13:25:34;1.25;;;1.00;;
62582;SDS011;48641;51.676;5.808;2023-08-20T13:27:59;2.33;;;1.23;;
62582;SDS011;48641;51.676;5.808;2023-08-20T13:30:25;2.40;;;1.10;;
62582;SDS011;48641;51.676;5.808;2023-08-20T13:32:51;1.92;;;1.15;;
62582;SDS011;48641;51.676;5.808;2023-08-20T13:35:16;2.20;;;1.02;;
62582;SDS011;48641;51.676;5.808;2023-08-20T13:37:43;1.83;;;1.05;;
62582;SDS011;48641;51.676;5.808;2023-08-20T13:40:09;1.63;;;1.10;;
62582;SDS011;48641;51.676;5.808;2023-08-20T13:42:35;1.85;;;1.10;;
62582;SDS011;48641;51.676;5.808;2023-08-20T13:45:01;1.77;;;0.85;;
62582;SDS011;48641;51.676;5.808;2023-08-20T13:47:26;1.92;;;1.10;;
62582;SDS011;48641;51.676;5.808;2023-08-20T13:49:52;3.28;;;1.20;;
62582;SDS011;48641;51.676;5.808;2023-08-20T13:52:18;1.88;;;1.00;;
62582;SDS011;48641;51.676;5.808;2023-08-20T13:54:43;2.63;;;1.20;;
62582;SDS011;48641;51.676;5.808;2023-08-20T13:57:09;3.42;;;1.00;;
62582;SDS011;48641;51.676;5.808;2023-08-20T13:59:35;2.33;;;1.20;;
62582;SDS011;48641;51.676;5.808;2023-08-20T14:02:00;1.08;;;0.90;;
62582;SDS011;48641;51.676;5.808;2023-08-20T14:04:26;1.58;;;0.88;;
62582;SDS011;48641;51.676;5.808;2023-08-20T14:06:52;1.48;;;0.93;;
62582;SDS011;48641;51.676;5.808;2023-08-20T14:09:17;1.80;;;0.85;;
62582;SDS011;48641;51.676;5.808;2023-08-20T14:11:43;3.13;;;1.25;;
62582;SDS011;48641;51.676;5.808;2023-08-20T14:14:10;1.50;;;0.90;;
62582;SDS011;48641;51.676;5.808;2023-08-20T14:16:35;2.00;;;1.00;;
62582;SDS011;48641;51.676;5.808;2023-08-20T14:19:01;1.85;;;1.00;;
62582;SDS011;48641;51.676;5.808;2023-08-20T14:21:26;2.55;;;1.15;;
62582;SDS011;48641;51.676;5.808;2023-08-20T14:23:52;1.80;;;1.02;;
62582;SDS011;48641;51.676;5.808;2023-08-20T14:26:21;1.65;;;0.93;;
62582;SDS011;48641;51.676;5.808;2023-08-20T14:28:46;2.25;;;1.10;;
62582;SDS011;48641;51.676;5.808;2023-08-20T14:31:12;2.65;;;1.05;;
62582;SDS011;48641;51.676;5.808;2023-08-20T14:33:38;2.47;;;1.10;;
62582;SDS011;48641;51.676;5.808;2023-08-20T14:36:03;2.17;;;1.10;;
62582;SDS011;48641;51.676;5.808;2023-08-20T14:38:29;1.20;;;0.90;;
62582;SDS011;48641;51.676;5.808;2023-08-20T14:40:59;2.55;;;1.02;;
62582;SDS011;48641;51.676;5.808;2023-08-20T14:43:26;2.10;;;1.00;;
62582;SDS011;48641;51.676;5.808;2023-08-20T14:45:52;1.77;;;1.02;;
62582;SDS011;48641;51.676;5.808;2023-08-20T14:48:19;2.53;;;1.05;;
62582;SDS011;48641;51.676;5.808;2023-08-20T14:50:45;2.45;;;1.10;;
62582;SDS011;48641;51.676;5.808;2023-08-20T14:53:10;1.38;;;0.95;;
62582;SDS011;48641;51.676;5.808;2023-08-20T14:55:36;1.85;;;1.00;;
62582;SDS011;48641;51.676;5.808;2023-08-20T14:58:02;2.47;;;1.20;;
62582;SDS011;48641;51.676;5.808;2023-08-20T15:00:29;1.95;;;0.90;;
62582;SDS011;48641;51.676;5.808;2023-08-20T15:02:57;2.40;;;1.17;;
62582;SDS011;48641;51.676;5.808;2023-08-20T15:05:22;2.63;;;0.90;;
62582;SDS011;48641;51.676;5.808;2023-08-20T15:07:48;2.10;;;1.00;;
62582;SDS011;48641;51.676;5.808;2023-08-20T15:10:14;1.63;;;0.90;;
62582;SDS011;48641;51.676;5.808;2023-08-20T15:12:39;2.63;;;1.10;;
62582;SDS011;48641;51.676;5.808;2023-08-20T15:15:05;2.10;;;0.98;;
62582;SDS011;48641;51.676;5.808;2023-08-20T15:17:33;1.70;;;0.90;;
62582;SDS011;48641;51.676;5.808;2023-08-20T15:20:00;1.40;;;0.90;;
62582;SDS011;48641;51.676;5.808;2023-08-20T15:22:26;2.22;;;0.80;;
62582;SDS011;48641;51.676;5.808;2023-08-20T15:24:52;2.33;;;1.10;;